Time;durP1;ratioP1;P1;durP2;ratioP2;P2;SDS_P1;SDS_P2;PMS_P1;PMS_P2;Temp;Humidity;BMP_temperature;BMP_pressure;BME280_temperature;BME280_humidity;BME280_pressure;Samples;Min_cycle;Max_cycle;Signal;HPM_P1;HPM_P2
2024/02/08 00:00:30;;;;;;;1.10;1.00;;;8.70;99.90;;;;;;4987652;28;20228;-71
2024/02/08 00:02:56;;;;;;;1.20;1.10;;;8.70;99.90;;;;;;4984072;28;20196;-70
2024/02/08 00:05:22;;;;;;;1.27;1.00;;;8.70;99.90;;;;;;4991687;28;20542;-69
2024/02/08 00:07:47;;;;;;;1.63;1.53;;;8.70;99.90;;;;;;4990271;28;20859;-70
2024/02/08 00:10:13;;;;;;;0.80;0.80;;;8.70;99.90;;;;;;4984240;28;20187;-70
2024/02/08 00:12:39;;;;;;;0.90;0.80;;;8.70;99.90;;;;;;4986245;28;20212;-70
2024/02/08 00:15:06;;;;;;;0.80;0.77;;;8.70;99.90;;;;;;4983721;28;20224;-70
2024/02/08 00:17:32;;;;;;;1.10;1.00;;;8.80;99.90;;;;;;4988234;28;20439;-70
2024/02/08 00:19:57;;;;;;;1.13;1.03;;;8.80;99.90;;;;;;4991286;28;20443;-70
2024/02/08 00:22:23;;;;;;;1.13;0.87;;;8.80;99.90;;;;;;4989621;28;20180;-70
2024/02/08 00:24:48;;;;;;;0.90;0.90;;;8.80;99.90;;;;;;4983020;28;20634;-70
2024/02/08 00:27:18;;;;;;;1.00;1.00;;;8.80;99.90;;;;;;4993780;28;20184;-69
2024/02/08 00:29:43;;;;;;;0.83;0.70;;;8.80;99.90;;;;;;4994553;28;20182;-70
2024/02/08 00:32:09;;;;;;;0.70;0.70;;;8.90;99.90;;;;;;4989013;28;20439;-70
2024/02/08 00:34:35;;;;;;;1.13;0.87;;;8.90;99.90;;;;;;4989573;28;20187;-70
2024/02/08 00:37:00;;;;;;;5.57;1.00;;;8.90;99.90;;;;;;4990716;28;20186;-70
2024/02/08 00:39:26;;;;;;;0.93;0.80;;;8.90;99.90;;;;;;4992331;28;20557;-70
2024/02/08 00:41:51;;;;;;;1.10;1.00;;;8.80;99.90;;;;;;4986128;28;20180;-70
2024/02/08 00:44:18;;;;;;;0.93;0.90;;;8.80;99.90;;;;;;4986680;28;20196;-70
2024/02/08 00:46:44;;;;;;;1.13;1.00;;;8.80;99.90;;;;;;4989126;28;20550;-70
2024/02/08 00:49:09;;;;;;;0.83;0.83;;;8.80;99.90;;;;;;4985668;28;20446;-70
2024/02/08 00:51:35;;;;;;;1.60;0.80;;;8.90;99.90;;;;;;4986061;28;20237;-71
2024/02/08 00:54:01;;;;;;;1.57;1.40;;;8.90;99.90;;;;;;4993063;28;20203;-70
2024/02/08 00:56:27;;;;;;;1.80;1.10;;;8.90;99.90;;;;;;4990018;28;20195;-71
2024/02/08 00:58:52;;;;;;;1.27;1.17;;;8.90;99.90;;;;;;4994296;28;20453;-69
2024/02/08 01:01:18;;;;;;;1.10;1.00;;;8.90;99.90;;;;;;4981329;28;20195;-70
2024/02/08 01:03:44;;;;;;;1.43;1.20;;;8.90;99.90;;;;;;4988727;28;20211;-71
2024/02/08 01:06:09;;;;;;;1.10;1.00;;;9.00;99.90;;;;;;4984496;28;20195;-70
2024/02/08 01:08:37;;;;;;;1.20;1.10;;;9.00;99.90;;;;;;4993252;28;20518;-69
2024/02/08 01:11:02;;;;;;;0.90;0.73;;;9.00;99.90;;;;;;4982632;28;20176;-69
2024/02/08 01:13:31;;;;;;;1.07;0.97;;;9.00;99.90;;;;;;4992088;28;20546;-70
2024/02/08 01:15:57;;;;;;;0.80;0.80;;;8.90;99.90;;;;;;4989832;28;20313;-71
2024/02/08 01:18:23;;;;;;;0.80;0.80;;;8.90;99.90;;;;;;4983187;28;20547;-69
2024/02/08 01:20:50;;;;;;;1.77;0.80;;;8.90;99.90;;;;;;4988982;28;20881;-70
2024/02/08 01:23:19;;;;;;;1.10;1.00;;;8.90;99.90;;;;;;4985258;28;20196;-70
2024/02/08 01:25:46;;;;;;;1.13;1.03;;;8.90;99.90;;;;;;4985568;28;20438;-70
2024/02/08 01:28:12;;;;;;;2.40;1.10;;;8.90;99.90;;;;;;4989949;28;20812;-71
2024/02/08 01:30:41;;;;;;;1.10;1.00;;;9.00;99.90;;;;;;4987924;28;20517;-70
2024/02/08 01:33:10;;;;;;;1.40;1.00;;;9.00;99.90;;;;;;5015413;23;20844;-67
2024/02/08 01:35:37;;;;;;;1.40;0.97;;;9.00;99.90;;;;;;4972839;28;20837;-67
2024/02/08 01:38:02;;;;;;;1.73;1.00;;;9.00;99.90;;;;;;4989075;28;20471;-67
2024/02/08 01:40:28;;;;;;;1.10;1.00;;;9.10;99.90;;;;;;4986878;28;20843;-67
2024/02/08 01:42:57;;;;;;;1.00;0.90;;;9.10;99.90;;;;;;4989322;28;20661;-67
2024/02/08 01:45:30;;;;;;;1.30;1.20;;;9.10;99.90;;;;;;4984385;28;20175;-68
2024/02/08 01:47:58;;;;;;;1.23;1.00;;;9.10;99.90;;;;;;4992773;28;20435;-67
2024/02/08 01:50:23;;;;;;;2.03;0.80;;;9.00;99.90;;;;;;4993125;28;20450;-67
2024/02/08 01:52:50;;;;;;;2.70;1.73;;;9.00;99.90;;;;;;4993060;28;20462;-67
2024/02/08 01:55:17;;;;;;;0.77;0.77;;;9.10;99.90;;;;;;4991963;28;20183;-67
2024/02/08 01:57:44;;;;;;;1.30;0.90;;;9.00;99.90;;;;;;4992089;28;20548;-68
2024/02/08 02:00:11;;;;;;;0.90;0.90;;;9.10;99.90;;;;;;4989776;28;20443;-69
2024/02/08 02:02:39;;;;;;;1.20;1.10;;;9.10;99.90;;;;;;4992276;28;20426;-69
2024/02/08 02:05:05;;;;;;;0.97;0.90;;;9.10;99.90;;;;;;4992948;28;20529;-69
2024/02/08 02:07:30;;;;;;;1.40;1.20;;;9.10;99.90;;;;;;4991658;28;20500;-70
2024/02/08 02:09:57;;;;;;;0.90;0.90;;;9.10;99.90;;;;;;4993123;28;20415;-69
2024/02/08 02:12:30;;;;;;;1.50;1.10;;;9.10;99.90;;;;;;4989974;28;20180;-70
2024/02/08 02:14:57;;;;;;;1.60;1.03;;;9.10;99.90;;;;;;4989737;28;20433;-69
2024/02/08 02:17:26;;;;;;;1.00;0.93;;;9.10;99.90;;;;;;4992606;28;20978;-69
2024/02/08 02:20:05;;;;;;;1.37;0.73;;;9.10;99.90;;;;;;4992379;28;20493;-69
2024/02/08 02:22:33;;;;;;;1.13;1.00;;;9.10;99.90;;;;;;4992516;28;20414;-69
2024/02/08 02:25:00;;;;;;;1.40;0.73;;;9.10;99.90;;;;;;4992459;28;20450;-70
2024/02/08 02:27:27;;;;;;;1.30;1.20;;;9.10;99.90;;;;;;4988426;28;20994;-69
2024/02/08 02:29:54;;;;;;;0.90;0.80;;;9.20;99.90;;;;;;4992624;28;20441;-69
2024/02/08 02:32:21;;;;;;;2.90;1.20;;;9.20;99.90;;;;;;4990823;28;20427;-70
2024/02/08 02:34:51;;;;;;;0.90;0.87;;;9.20;99.90;;;;;;4992553;28;20512;-70
2024/02/08 02:37:22;;;;;;;1.87;0.80;;;9.20;99.90;;;;;;4991534;28;20431;-69
2024/02/08 02:39:49;;;;;;;0.97;0.97;;;9.20;99.90;;;;;;4992650;28;20461;-69
2024/02/08 02:42:14;;;;;;;0.80;0.80;;;9.10;99.90;;;;;;4989439;28;20449;-69
2024/02/08 02:44:40;;;;;;;1.00;0.60;;;9.10;99.90;;;;;;4987302;28;20442;-69
2024/02/08 02:47:06;;;;;;;0.83;0.83;;;9.10;99.90;;;;;;4991649;28;20668;-69
2024/02/08 02:49:36;;;;;;;0.70;0.63;;;9.10;99.90;;;;;;4981853;28;20672;-69
2024/02/08 02:52:07;;;;;;;0.97;0.80;;;9.10;99.90;;;;;;4988280;28;20649;-69
2024/02/08 02:54:35;;;;;;;0.70;0.50;;;9.20;99.90;;;;;;4992534;28;20439;-69
2024/02/08 02:57:03;;;;;;;0.80;0.77;;;9.20;99.90;;;;;;4990832;28;20427;-69
2024/02/08 02:59:30;;;;;;;0.80;0.60;;;9.20;99.90;;;;;;4991129;28;20880;-69
2024/02/08 03:01:56;;;;;;;0.60;0.60;;;9.20;99.90;;;;;;4991596;28;20526;-69
2024/02/08 03:04:22;;;;;;;0.70;0.70;;;9.20;99.90;;;;;;4992010;28;20537;-69
2024/02/08 03:06:53;;;;;;;1.50;0.60;;;9.20;99.90;;;;;;4991304;28;20183;-69
2024/02/08 03:09:23;;;;;;;0.70;0.70;;;9.20;99.90;;;;;;4992430;28;20462;-69
2024/02/08 03:11:49;;;;;;;1.10;0.73;;;9.20;99.90;;;;;;4992203;28;20806;-70
2024/02/08 03:14:15;;;;;;;0.60;0.60;;;9.20;99.90;;;;;;4993591;28;20466;-69
2024/02/08 03:16:41;;;;;;;0.50;0.50;;;9.20;99.90;;;;;;4995683;28;20477;-69
2024/02/08 03:19:07;;;;;;;0.50;0.50;;;9.30;99.90;;;;;;4991751;28;20207;-69
2024/02/08 03:21:40;;;;;;;1.83;0.60;;;9.30;99.90;;;;;;4986469;28;20438;-69
2024/02/08 03:24:09;;;;;;;0.60;0.60;;;9.20;99.90;;;;;;4995652;28;20196;-70
2024/02/08 03:26:40;;;;;;;0.60;0.60;;;9.20;99.90;;;;;;4995882;28;20489;-69
2024/02/08 03:29:12;;;;;;;0.80;0.77;;;9.20;99.90;;;;;;4994986;28;20834;-69
2024/02/08 03:31:45;;;;;;;0.73;0.50;;;9.30;99.90;;;;;;4995365;28;20434;-68
2024/02/08 03:34:16;;;;;;;0.60;0.50;;;9.30;99.90;;;;;;4995141;28;20474;-69
2024/02/08 03:36:42;;;;;;;0.70;0.53;;;9.30;99.90;;;;;;4995799;28;20449;-69
2024/02/08 03:39:13;;;;;;;0.60;0.60;;;9.30;99.90;;;;;;4995167;28;21054;-69
2024/02/08 03:41:40;;;;;;;0.50;0.50;;;9.30;99.90;;;;;;4995387;28;20522;-69
2024/02/08 03:44:06;;;;;;;0.67;0.60;;;9.40;99.90;;;;;;4993705;28;20450;-69
2024/02/08 03:46:31;;;;;;;0.50;0.50;;;9.40;99.90;;;;;;4995043;28;20457;-69
2024/02/08 03:48:57;;;;;;;1.10;0.60;;;9.40;99.90;;;;;;4995710;28;20167;-69
2024/02/08 03:51:23;;;;;;;0.80;0.70;;;9.40;99.90;;;;;;4972718;28;20183;-69
2024/02/08 03:53:48;;;;;;;0.70;0.70;;;9.50;99.90;;;;;;4995514;28;20450;-69
2024/02/08 03:56:15;;;;;;;0.80;0.80;;;9.40;99.90;;;;;;4995553;28;20179;-70
2024/02/08 03:58:41;;;;;;;0.80;0.80;;;9.50;99.90;;;;;;4994096;28;20199;-70
2024/02/08 04:01:08;;;;;;;0.90;0.77;;;9.50;99.90;;;;;;4990285;28;20456;-70
2024/02/08 04:06:36;;;;;;;1.80;0.70;;;9.50;99.90;;;;;;4995953;28;21094;-69
2024/02/08 04:09:08;;;;;;;1.00;1.00;;;9.50;99.90;;;;;;4993102;28;20459;-70
2024/02/08 04:55:24;;;;;;;2.33;0.93;;;9.40;99.90;;;;;;4994654;28;20531;-69
2024/02/08 04:57:49;;;;;;;0.60;0.60;;;9.50;99.90;;;;;;4975911;28;20549;-69
2024/02/08 05:00:15;;;;;;;0.73;0.73;;;9.50;99.90;;;;;;4994236;28;20642;-69
2024/02/08 05:02:41;;;;;;;0.77;0.73;;;9.50;99.90;;;;;;4993965;28;20171;-69
2024/02/08 05:05:07;;;;;;;1.03;0.93;;;9.50;99.90;;;;;;4993682;28;20431;-70
2024/02/08 05:07:32;;;;;;;1.23;1.13;;;9.50;99.90;;;;;;4993611;28;20634;-69
2024/02/08 05:09:58;;;;;;;1.00;0.80;;;9.50;99.90;;;;;;4993938;28;20187;-69
2024/02/08 05:12:24;;;;;;;0.80;0.80;;;9.50;99.90;;;;;;4993272;28;20195;-69
2024/02/08 05:14:50;;;;;;;0.70;0.70;;;9.40;99.90;;;;;;4985487;28;20491;-70
2024/02/08 05:17:15;;;;;;;1.17;0.90;;;9.40;99.90;;;;;;4992767;28;20706;-70
2024/02/08 05:19:43;;;;;;;0.90;0.80;;;9.30;99.90;;;;;;4994162;28;20192;-69
2024/02/08 05:22:11;;;;;;;1.00;0.97;;;9.20;99.90;;;;;;4993625;28;20275;-69
2024/02/08 05:24:37;;;;;;;1.50;1.10;;;9.10;99.90;;;;;;4993015;28;20476;-70
2024/02/08 05:27:02;;;;;;;1.23;1.13;;;9.00;99.90;;;;;;4988448;28;20470;-70
2024/02/08 05:29:28;;;;;;;1.40;1.27;;;9.00;99.90;;;;;;4987146;28;20545;-69
2024/02/08 05:31:54;;;;;;;1.73;1.20;;;8.90;99.90;;;;;;4990365;28;20190;-69
2024/02/08 05:34:21;;;;;;;3.10;1.10;;;9.00;99.90;;;;;;4993602;28;20677;-70
2024/02/08 05:36:49;;;;;;;1.27;0.87;;;8.90;99.90;;;;;;4992102;28;20176;-69
2024/02/08 05:39:24;;;;;;;1.20;1.10;;;8.90;99.90;;;;;;4990367;28;20463;-70
2024/02/08 05:41:54;;;;;;;3.03;1.10;;;8.90;99.90;;;;;;4993071;28;20448;-70
2024/02/08 05:44:20;;;;;;;1.50;1.20;;;8.90;99.90;;;;;;4991334;28;20442;-69
2024/02/08 05:46:47;;;;;;;1.23;1.10;;;8.90;99.90;;;;;;4993344;28;20422;-70
2024/02/08 05:49:16;;;;;;;0.90;0.90;;;8.90;99.90;;;;;;4985706;28;20526;-70
2024/02/08 05:51:56;;;;;;;2.30;0.90;;;8.90;99.90;;;;;;4986622;28;20496;-70
2024/02/08 05:54:31;;;;;;;1.53;1.00;;;8.90;99.90;;;;;;4985569;28;20500;-70
2024/02/08 05:57:02;;;;;;;1.77;1.10;;;8.90;99.90;;;;;;4993138;28;20505;-70
2024/02/08 05:59:29;;;;;;;1.03;0.93;;;8.90;99.90;;;;;;4993098;28;20458;-70
2024/02/08 06:01:58;;;;;;;0.70;0.70;;;8.90;99.90;;;;;;4989176;28;20445;-69
2024/02/08 06:04:25;;;;;;;3.23;0.90;;;8.90;99.90;;;;;;4990986;28;20936;-69
2024/02/08 06:07:07;;;;;;;1.53;1.30;;;8.90;99.90;;;;;;4992100;28;20438;-69
2024/02/08 06:09:47;;;;;;;1.10;1.00;;;8.80;99.90;;;;;;4986978;28;20927;-70
2024/02/08 06:12:27;;;;;;;0.80;0.80;;;8.80;99.90;;;;;;4991486;28;20492;-69
2024/02/08 06:14:59;;;;;;;0.97;0.90;;;8.80;99.90;;;;;;4992492;28;20474;-70
2024/02/08 06:17:32;;;;;;;0.97;0.97;;;8.80;99.90;;;;;;4982154;28;20434;-70
2024/02/08 06:20:00;;;;;;;1.00;0.90;;;8.80;99.90;;;;;;4992347;28;20458;-70
2024/02/08 06:22:26;;;;;;;1.97;1.00;;;8.80;99.90;;;;;;4994121;28;20485;-70
2024/02/08 06:24:54;;;;;;;1.10;1.00;;;8.80;99.90;;;;;;4989681;28;20801;-70
2024/02/08 06:27:23;;;;;;;3.60;1.10;;;8.80;99.90;;;;;;4992077;28;20458;-69
2024/02/08 06:29:49;;;;;;;1.23;1.13;;;8.80;99.90;;;;;;4989293;28;20449;-69
2024/02/08 06:35:09;;;;;;;1.30;1.20;;;8.80;99.90;;;;;;4992736;28;20819;-69
2024/02/08 06:37:44;;;;;;;1.20;1.03;;;8.80;99.90;;;;;;4991341;28;20526;-70
2024/02/08 06:40:36;;;;;;;2.87;2.57;;;8.80;99.90;;;;;;4991371;28;20437;-70
2024/02/08 07:37:25;;;;;;;2.73;1.67;;;9.00;99.90;;;;;;4990060;28;20489;-71
2024/02/08 07:39:54;;;;;;;2.00;1.80;;;9.00;99.90;;;;;;4991822;28;20463;-71
2024/02/08 07:42:29;;;;;;;2.43;1.50;;;9.00;99.90;;;;;;4991458;28;20172;-71
2024/02/08 07:45:07;;;;;;;12.13;2.47;;;9.00;99.90;;;;;;4991278;28;20423;-71
2024/02/08 07:47:33;;;;;;;1.30;1.20;;;9.00;99.90;;;;;;4989705;28;20434;-71
2024/02/08 07:50:07;;;;;;;1.87;1.40;;;9.00;99.90;;;;;;4989358;28;20473;-70
2024/02/08 07:52:55;;;;;;;2.93;1.40;;;9.10;99.90;;;;;;4989891;28;20442;-71
2024/02/08 07:55:46;;;;;;;5.20;2.00;;;9.10;99.90;;;;;;4983586;28;20470;-70
2024/02/08 07:58:14;;;;;;;2.00;1.67;;;9.10;99.90;;;;;;4985341;28;20457;-70
2024/02/08 08:03:10;;;;;;;2.90;1.33;;;9.20;99.90;;;;;;5000755;28;20980;-69
2024/02/08 08:05:41;;;;;;;1.63;1.07;;;9.20;99.90;;;;;;4991657;28;20234;-70
2024/02/08 08:08:28;;;;;;;1.40;1.30;;;9.30;99.90;;;;;;4976418;28;20442;-69
2024/02/08 08:11:02;;;;;;;2.07;1.07;;;9.30;99.90;;;;;;4993243;28;20443;-70
2024/02/08 08:18:58;;;;;;;1.20;1.10;;;9.50;99.90;;;;;;4994435;28;20491;-70
2024/02/08 08:21:27;;;;;;;1.07;0.97;;;9.50;99.90;;;;;;4994693;28;20434;-70
2024/02/08 08:24:02;;;;;;;1.33;1.20;;;9.60;99.90;;;;;;4981294;28;20457;-69
2024/02/08 08:26:44;;;;;;;1.13;1.03;;;9.60;99.90;;;;;;4993866;28;20465;-70
2024/02/08 08:29:19;;;;;;;1.40;1.13;;;9.70;99.90;;;;;;4993912;28;20826;-70
2024/02/08 08:31:53;;;;;;;1.63;1.53;;;9.80;99.90;;;;;;4997624;28;20430;-70
2024/02/08 08:37:02;;;;;;;1.30;1.20;;;10.00;99.90;;;;;;5001179;28;20444;-69
2024/02/08 08:40:20;;;;;;;0.93;0.93;;;10.10;99.90;;;;;;4986576;28;20552;-69
2024/02/08 08:42:17;;;;;;;2.57;1.00;;;10.10;99.90;;;;;;4990670;28;20427;-66
2024/02/08 08:44:48;;;;;;;4.93;1.53;;;10.10;99.90;;;;;;4994039;28;20454;-69
2024/02/08 08:47:16;;;;;;;1.30;1.20;;;10.00;99.90;;;;;;4981399;28;20423;-69
2024/02/08 08:49:42;;;;;;;1.17;1.00;;;10.00;99.90;;;;;;4975024;28;20467;-69
2024/02/08 08:52:09;;;;;;;1.20;1.10;;;10.00;99.90;;;;;;4975102;28;20431;-69
2024/02/08 08:54:36;;;;;;;1.50;1.40;;;10.10;99.90;;;;;;4976191;28;20451;-68
2024/02/08 08:57:12;;;;;;;1.73;1.63;;;10.20;99.90;;;;;;4974743;28;20439;-69
2024/02/08 08:59:43;;;;;;;1.03;1.00;;;10.30;99.90;;;;;;4975353;28;20538;-70
2024/02/08 09:02:09;;;;;;;1.20;1.00;;;10.30;99.90;;;;;;4976911;28;20431;-70
2024/02/08 09:04:35;;;;;;;1.67;0.90;;;10.40;99.90;;;;;;4976365;28;20951;-70
2024/02/08 09:07:10;;;;;;;1.10;1.10;;;10.40;99.90;;;;;;4974669;28;20496;-69
2024/02/08 09:10:00;;;;;;;1.00;0.90;;;10.30;99.90;;;;;;4974864;28;20543;-68
2024/02/08 09:12:30;;;;;;;1.17;1.10;;;10.40;99.90;;;;;;4975355;28;20432;-69
2024/02/08 09:15:19;;;;;;;1.10;1.00;;;10.40;99.90;;;;;;4975453;28;20427;-69
2024/02/08 09:17:51;;;;;;;1.00;0.90;;;10.40;99.90;;;;;;4975581;28;20432;-69
2024/02/08 09:20:20;;;;;;;1.27;0.90;;;10.50;99.90;;;;;;4974426;28;20458;-68
2024/02/08 09:22:52;;;;;;;1.63;0.90;;;10.50;99.90;;;;;;4988907;28;20431;-67
2024/02/08 09:25:23;;;;;;;2.47;1.27;;;10.50;99.90;;;;;;4993789;28;20414;-67
2024/02/08 09:27:55;;;;;;;1.50;1.17;;;10.50;99.90;;;;;;4993448;28;20762;-66
2024/02/08 09:30:52;;;;;;;0.83;0.77;;;10.50;99.90;;;;;;4967408;28;20511;-68
2024/02/08 09:33:30;;;;;;;2.10;0.90;;;10.50;99.90;;;;;;4986925;28;20541;-67
2024/02/08 09:35:59;;;;;;;1.13;1.00;;;10.50;99.90;;;;;;4993688;28;20426;-68
2024/02/08 09:38:28;;;;;;;1.83;0.97;;;10.40;99.90;;;;;;4993272;28;20450;-68
2024/02/08 09:40:59;;;;;;;2.00;1.03;;;10.50;99.90;;;;;;4993183;28;20437;-67
2024/02/08 09:43:29;;;;;;;1.10;1.00;;;10.50;99.90;;;;;;4993665;28;20435;-68
2024/02/08 09:48:47;;;;;;;1.50;1.00;;;10.70;99.90;;;;;;4991853;28;20441;-67
2024/02/08 09:51:23;;;;;;;1.87;1.40;;;10.90;99.90;;;;;;4964090;28;20431;-68
2024/02/08 09:53:54;;;;;;;1.20;1.10;;;11.00;99.90;;;;;;4973876;28;20458;-69
2024/02/08 09:56:37;;;;;;;1.30;1.17;;;10.90;99.90;;;;;;4973655;28;20454;-69
2024/02/08 09:59:18;;;;;;;1.10;1.00;;;10.90;99.90;;;;;;4989929;28;20797;-69
2024/02/08 10:01:44;;;;;;;1.30;1.20;;;10.90;99.90;;;;;;4992930;28;20411;-68
2024/02/08 10:04:16;;;;;;;1.17;0.70;;;11.00;99.90;;;;;;4991623;28;20445;-68
2024/02/08 10:06:56;;;;;;;0.87;0.80;;;11.00;99.90;;;;;;4992789;28;20210;-68
2024/02/08 10:09:46;;;;;;;1.60;0.97;;;11.20;99.90;;;;;;4987622;28;20984;-68
2024/02/08 10:12:20;;;;;;;1.13;1.07;;;11.40;99.90;;;;;;4973614;28;20424;-69
2024/02/08 10:14:51;;;;;;;1.20;1.10;;;11.30;99.90;;;;;;4968396;28;20457;-68
2024/02/08 10:17:24;;;;;;;0.90;0.80;;;11.20;99.90;;;;;;4991499;28;20418;-68
2024/02/08 10:22:53;;;;;;;2.40;0.90;;;11.20;99.90;;;;;;4992605;28;20485;-69
2024/02/08 10:28:08;;;;;;;1.07;0.90;;;11.40;99.90;;;;;;4992471;28;20994;-68
2024/02/08 10:30:36;;;;;;;0.83;0.83;;;11.40;99.90;;;;;;4975257;28;20422;-69
2024/02/08 10:33:05;;;;;;;1.70;1.17;;;11.50;99.90;;;;;;4990891;28;20459;-69
2024/02/08 10:35:39;;;;;;;0.70;0.70;;;11.40;99.90;;;;;;4992522;28;20419;-69
2024/02/08 10:38:18;;;;;;;0.70;0.70;;;11.40;99.90;;;;;;4992028;28;20457;-69
2024/02/08 10:40:55;;;;;;;1.57;1.20;;;11.30;99.90;;;;;;4979430;28;21027;-69
2024/02/08 10:43:25;;;;;;;1.77;1.23;;;11.20;99.90;;;;;;4972730;28;20936;-68
2024/02/08 10:46:01;;;;;;;1.50;1.40;;;11.10;99.90;;;;;;4986746;28;20427;-68
2024/02/08 10:48:28;;;;;;;1.67;1.57;;;11.00;99.90;;;;;;4993829;28;20488;-69
2024/02/08 10:51:00;;;;;;;1.30;1.20;;;10.90;99.90;;;;;;4992677;28;20431;-69
2024/02/08 10:53:48;;;;;;;1.27;1.10;;;10.80;99.90;;;;;;4991683;28;20529;-69
2024/02/08 10:56:16;;;;;;;1.60;1.10;;;10.80;99.90;;;;;;4992044;28;20454;-69
2024/02/08 11:01:37;;;;;;;0.80;0.80;;;10.70;99.90;;;;;;4973416;28;20949;-68
2024/02/08 11:04:28;;;;;;;1.20;1.10;;;10.80;99.90;;;;;;4980878;28;20466;-68
2024/02/08 11:06:58;;;;;;;1.07;0.93;;;10.90;99.90;;;;;;4988168;28;20437;-69
2024/02/08 11:09:27;;;;;;;1.53;0.90;;;11.00;99.90;;;;;;4992104;28;20418;-69
2024/02/08 11:12:08;;;;;;;1.30;1.30;;;11.10;99.90;;;;;;4971720;28;20435;-68
2024/02/08 11:14:56;;;;;;;0.70;0.70;;;11.20;99.90;;;;;;4973283;28;20505;-68
2024/02/08 11:17:25;;;;;;;1.13;1.03;;;11.20;99.90;;;;;;4972714;28;20842;-69
2024/02/08 11:19:56;;;;;;;1.57;0.87;;;11.30;99.90;;;;;;4986546;28;20466;-68
2024/02/08 11:25:35;;;;;;;1.00;0.90;;;11.50;99.90;;;;;;4948837;28;20820;-69
2024/02/08 11:28:13;;;;;;;0.90;0.83;;;11.50;99.90;;;;;;4991855;28;20422;-68
2024/02/08 11:30:39;;;;;;;2.10;0.80;;;11.60;99.90;;;;;;4981881;28;20865;-69
2024/02/08 11:33:12;;;;;;;0.83;0.80;;;11.70;99.90;;;;;;4991460;28;20454;-69
2024/02/08 11:35:57;;;;;;;0.80;0.80;;;11.80;99.90;;;;;;4977211;28;20434;-69
2024/02/08 11:38:30;;;;;;;1.17;1.07;;;11.90;99.90;;;;;;4976223;28;20462;-69
2024/02/08 11:41:06;;;;;;;0.90;0.80;;;12.10;99.90;;;;;;4984274;28;20525;-69
2024/02/08 11:43:32;;;;;;;0.70;0.70;;;12.20;99.90;;;;;;4995904;28;20841;-69
2024/02/08 11:45:57;;;;;;;1.03;0.77;;;12.40;99.90;;;;;;4995894;28;20422;-69
2024/02/08 11:48:41;;;;;;;1.20;0.80;;;12.30;99.90;;;;;;4995640;28;20178;-68
2024/02/08 11:51:11;;;;;;;0.70;0.70;;;12.20;99.90;;;;;;4993000;28;20668;-69
2024/02/08 11:53:38;;;;;;;1.77;0.80;;;12.10;99.90;;;;;;4995416;28;20450;-69
2024/02/08 11:56:08;;;;;;;1.57;0.90;;;12.20;99.90;;;;;;4995706;28;20480;-69
2024/02/08 11:58:41;;;;;;;2.70;1.03;;;12.30;99.90;;;;;;4994786;28;20455;-69
2024/02/08 12:01:09;;;;;;;1.57;1.47;;;12.30;99.90;;;;;;4995243;28;20818;-69
2024/02/08 12:03:41;;;;;;;1.50;1.10;;;12.30;99.90;;;;;;4995606;28;20438;-69
2024/02/08 12:06:21;;;;;;;2.20;1.10;;;12.30;99.90;;;;;;4977585;28;20423;-68
2024/02/08 12:08:57;;;;;;;1.17;0.73;;;12.30;99.90;;;;;;4976987;28;20543;-70
2024/02/08 12:11:24;;;;;;;2.00;1.10;;;12.30;99.90;;;;;;4995420;28;20426;-70
2024/02/08 12:13:53;;;;;;;1.10;1.00;;;12.30;99.90;;;;;;4995322;28;20442;-70
2024/02/08 12:16:18;;;;;;;2.20;1.30;;;12.50;99.90;;;;;;4995368;28;20433;-70
2024/02/08 12:18:44;;;;;;;2.87;0.93;;;12.50;99.90;;;;;;4998458;28;20454;-71
2024/02/08 12:21:17;;;;;;;3.13;1.20;;;12.60;99.90;;;;;;4997449;28;20445;-71
2024/02/08 12:23:43;;;;;;;4.87;3.67;;;12.70;99.90;;;;;;4999862;28;20187;-71
2024/02/08 12:26:12;;;;;;;2.23;1.00;;;12.90;99.90;;;;;;4999426;28;20498;-71
2024/02/08 12:28:43;;;;;;;4.03;1.30;;;12.90;99.90;;;;;;4999302;28;20233;-70
2024/02/08 12:31:16;;;;;;;2.77;1.10;;;13.00;99.90;;;;;;4999603;28;20423;-72
2024/02/08 12:33:45;;;;;;;2.33;1.30;;;13.00;99.90;;;;;;4985242;28;20471;-70
2024/02/08 12:36:12;;;;;;;2.40;1.17;;;12.90;99.90;;;;;;4993710;28;20438;-70
2024/02/08 12:38:38;;;;;;;3.87;1.50;;;12.90;99.90;;;;;;4994458;28;20490;-70
2024/02/08 12:41:06;;;;;;;4.43;1.27;;;12.90;99.90;;;;;;4993189;28;20894;-70
2024/02/08 12:43:33;;;;;;;4.83;2.10;;;13.00;99.90;;;;;;4975208;28;20189;-70
2024/02/08 12:45:59;;;;;;;1.87;1.30;;;13.60;99.90;;;;;;4974689;28;20424;-70
2024/02/08 12:48:29;;;;;;;3.43;1.47;;;14.10;99.90;;;;;;4974964;28;20928;-70
2024/02/08 12:50:55;;;;;;;3.43;1.30;;;14.10;99.90;;;;;;4977226;28;20172;-70
2024/02/08 12:53:21;;;;;;;3.60;1.67;;;14.00;99.90;;;;;;4987720;28;20525;-70
2024/02/08 12:55:47;;;;;;;4.93;1.70;;;13.80;99.90;;;;;;4994445;28;20430;-70
2024/02/08 12:58:17;;;;;;;3.33;1.97;;;13.40;99.90;;;;;;4994108;28;20470;-70
2024/02/08 13:00:45;;;;;;;7.20;1.50;;;13.30;99.90;;;;;;4993982;28;20218;-71
2024/02/08 13:03:11;;;;;;;2.60;1.80;;;13.20;99.90;;;;;;4994282;28;20457;-71
2024/02/08 13:05:44;;;;;;;4.70;1.80;;;13.30;99.90;;;;;;4992565;28;20431;-71
2024/02/08 13:08:10;;;;;;;2.33;2.13;;;13.50;99.90;;;;;;4993954;28;20509;-70
2024/02/08 13:10:35;;;;;;;4.87;2.10;;;14.10;99.90;;;;;;4994080;28;20511;-70
2024/02/08 13:13:09;;;;;;;9.30;3.07;;;14.50;97.40;;;;;;4980993;28;20601;-71
2024/02/08 13:15:36;;;;;;;6.23;2.07;;;14.90;87.00;;;;;;4974648;28;20609;-71
2024/02/08 13:18:02;;;;;;;6.17;3.03;;;15.30;85.20;;;;;;4974153;28;20925;-71
2024/02/08 13:20:28;;;;;;;5.53;2.50;;;15.50;63.80;;;;;;4975533;28;20435;-70
2024/02/08 13:22:55;;;;;;;5.20;2.60;;;15.20;63.60;;;;;;4974373;28;20448;-71
2024/02/08 13:25:27;;;;;;;3.23;1.70;;;14.70;90.60;;;;;;4974454;28;20424;-71
2024/02/08 13:27:54;;;;;;;7.10;2.40;;;14.40;94.80;;;;;;4974085;28;20422;-70
2024/02/08 13:30:20;;;;;;;5.80;2.13;;;14.50;98.80;;;;;;4974772;28;20437;-70
2024/02/08 13:32:51;;;;;;;4.67;2.40;;;14.70;96.70;;;;;;4956619;28;20428;-70
2024/02/08 13:35:20;;;;;;;12.03;2.60;;;14.60;91.90;;;;;;4974148;28;20196;-71
2024/02/08 13:37:56;;;;;;;6.50;2.50;;;14.50;92.40;;;;;;4974607;28;20940;-71
2024/02/08 13:40:24;;;;;;;6.77;2.37;;;14.40;91.20;;;;;;4974199;28;20434;-70
2024/02/08 13:42:50;;;;;;;14.03;4.03;;;14.20;92.50;;;;;;4981324;28;20457;-70
2024/02/08 13:45:17;;;;;;;9.43;3.47;;;14.20;94.10;;;;;;4993371;28;20411;-71
2024/02/08 13:47:49;;;;;;;10.97;3.10;;;14.50;89.10;;;;;;4993157;28;20442;-70
2024/02/08 13:50:18;;;;;;;10.67;3.23;;;14.60;79.20;;;;;;4993240;28;20530;-71
2024/02/08 13:52:48;;;;;;;7.87;2.90;;;15.00;70.90;;;;;;4988974;28;20418;-68
2024/02/08 13:55:19;;;;;;;11.63;3.60;;;14.60;76.80;;;;;;4980439;28;20435;-70
2024/02/08 13:57:50;;;;;;;7.40;3.03;;;14.30;92.30;;;;;;4972805;28;20833;-70
2024/02/08 14:00:20;;;;;;;5.80;2.77;;;14.00;99.40;;;;;;4973987;28;20428;-70
2024/02/08 14:02:49;;;;;;;6.90;3.20;;;14.00;97.30;;;;;;4991698;28;21007;-70
2024/02/08 14:05:29;;;;;;;8.50;4.40;;;13.90;99.90;;;;;;4993213;28;20414;-69
2024/02/08 14:07:57;;;;;;;9.63;3.67;;;13.80;99.90;;;;;;4990721;28;20419;-70
2024/02/08 14:10:27;;;;;;;6.23;3.17;;;13.70;99.90;;;;;;4992696;28;20415;-69
2024/02/08 14:12:59;;;;;;;10.47;4.03;;;13.60;99.90;;;;;;4993142;28;20449;-69
2024/02/08 14:15:29;;;;;;;12.67;3.70;;;13.50;99.90;;;;;;4993189;28;20418;-69
2024/02/08 14:17:58;;;;;;;14.73;4.23;;;13.50;99.90;;;;;;4992768;28;20481;-69
2024/02/08 14:23:09;;;;;;;9.23;4.50;;;13.40;99.90;;;;;;4975886;28;20490;-69
2024/02/08 14:26:09;;;;;;;11.03;3.50;;;13.30;99.90;;;;;;4973702;28;20478;-70
2024/02/08 14:28:24;;;;;;;10.70;3.63;;;13.30;99.90;;;;;;4972469;28;20432;-71
2024/02/08 14:30:51;;;;;;;15.43;4.90;;;13.20;99.90;;;;;;4981176;28;20813;-70
2024/02/08 14:33:19;;;;;;;9.00;3.97;;;13.20;99.90;;;;;;4992754;28;20211;-69
2024/02/08 14:35:47;;;;;;;8.00;3.40;;;13.10;99.90;;;;;;4992916;28;20513;-70
2024/02/08 14:38:14;;;;;;;10.60;3.57;;;13.10;99.90;;;;;;4990850;28;20454;-70
2024/02/08 14:40:42;;;;;;;16.70;4.00;;;13.10;99.90;;;;;;4992789;28;20433;-70
2024/02/08 14:43:08;;;;;;;8.40;3.50;;;13.10;99.90;;;;;;4980195;28;20511;-70
2024/02/08 14:45:38;;;;;;;12.43;3.80;;;13.10;99.90;;;;;;4973221;28;20510;-69
2024/02/08 14:48:09;;;;;;;6.83;4.07;;;13.10;99.90;;;;;;4973056;28;20650;-69
2024/02/08 14:50:52;;;;;;;10.60;4.80;;;13.10;99.90;;;;;;4973327;28;20430;-70
2024/02/08 14:53:19;;;;;;;10.00;4.07;;;13.10;99.90;;;;;;4974310;28;20525;-69
2024/02/08 14:55:45;;;;;;;13.93;3.93;;;13.00;99.90;;;;;;4973206;28;20423;-70
2024/02/08 14:58:32;;;;;;;11.20;3.37;;;13.00;99.90;;;;;;4972735;28;20426;-70
2024/02/08 15:01:30;;;;;;;11.60;4.67;;;13.00;99.90;;;;;;4973171;28;20419;-70
2024/02/08 15:03:51;;;;;;;8.87;3.93;;;12.90;99.90;;;;;;4990527;28;21048;-69
2024/02/08 15:06:38;;;;;;;9.63;3.50;;;12.90;99.90;;;;;;4992381;28;20503;-68
2024/02/08 15:11:57;;;;;;;10.93;3.40;;;12.80;99.90;;;;;;4996551;28;20433;-70
2024/02/08 15:14:28;;;;;;;10.70;3.90;;;12.80;99.90;;;;;;4990381;28;20490;-67
2024/02/08 15:16:56;;;;;;;8.80;4.40;;;12.80;99.90;;;;;;4976703;28;20505;-72
2024/02/08 15:19:25;;;;;;;12.43;4.00;;;12.80;99.90;;;;;;4979997;28;20471;-66